Time;durP1;ratioP1;P1;durP2;ratioP2;P2;SDS_P1;SDS_P2;PMS_P1;PMS_P2;Temp;Humidity;BMP_temperature;BMP_pressure;BME280_temperature;BME280_humidity;BME280_pressure;Samples;Min_cycle;Max_cycle;Signal;HPM_P1;HPM_P2
2022/07/03 00:01:56;;;;;;;0.27;0.27;;;18.40;99.90;18.80;101651.00;;;;5088168;28;20188;-68
2022/07/03 00:04:40;;;;;;;0.20;0.20;;;18.20;99.90;18.80;101653.00;;;;5067210;28;20215;-68
2022/07/03 00:07:46;;;;;;;0.40;0.40;;;18.30;99.90;18.70;101658.00;;;;5056162;28;20705;-68
2022/07/03 00:10:46;;;;;;;0.30;0.30;;;18.30;99.90;18.90;101659.00;;;;5067358;28;20176;-68
2022/07/03 00:13:32;;;;;;;0.53;0.53;;;18.30;99.90;18.40;101622.00;;;;5054412;28;20607;-68
2022/07/03 00:16:18;;;;;;;0.30;0.30;;;18.10;99.90;18.60;101663.00;;;;5055539;28;20230;-68
2022/07/03 00:19:05;;;;;;;0.23;0.23;;;18.10;99.90;18.10;101649.00;;;;5053946;28;20278;-68
2022/07/03 00:22:30;;;;;;;0.50;0.50;;;17.90;99.90;17.80;101656.00;;;;5054561;28;20551;-68
2022/07/03 00:25:25;;;;;;;0.50;0.40;;;17.80;99.90;17.90;101648.00;;;;5016629;28;20288;-68
2022/07/03 00:28:11;;;;;;;0.60;0.60;;;17.70;99.90;18.00;101616.00;;;;5016923;28;20187;-68
2022/07/03 00:30:59;;;;;;;0.20;0.20;;;17.70;99.90;18.20;101652.00;;;;5000310;28;20193;-68
2022/07/03 00:33:45;;;;;;;0.83;0.83;;;17.80;99.90;18.10;101653.00;;;;4999890;28;20207;-68
2022/07/03 00:36:36;;;;;;;3.03;0.70;;;17.70;99.90;17.90;101628.00;;;;5016531;28;20188;-68
2022/07/03 00:39:21;;;;;;;1.53;1.43;;;17.70;99.90;17.90;101648.00;;;;5016329;28;20505;-68
2022/07/03 00:46:08;;;;;;;0.40;0.40;;;17.80;99.90;18.20;101669.00;;;;4992322;28;20657;-68
2022/07/03 00:48:58;;;;;;;0.87;0.47;;;17.80;99.90;17.90;101674.00;;;;4999914;28;20184;-68
2022/07/03 00:51:38;;;;;;;0.40;0.40;;;17.80;99.90;18.20;101664.00;;;;5000168;28;20208;-68
2022/07/03 00:54:24;;;;;;;0.23;0.23;;;17.80;99.90;17.60;101619.00;;;;5069927;28;20181;-68
2022/07/03 00:57:14;;;;;;;0.40;0.40;;;17.60;99.90;17.70;101666.00;;;;5086915;28;20181;-68
2022/07/03 01:00:00;;;;;;;0.60;0.60;;;17.60;99.90;18.00;101658.00;;;;5053280;28;20176;-68
2022/07/03 01:10:29;;;;;;;1.10;1.00;;;17.80;99.90;18.30;101663.00;;;;5032606;28;20295;-68
2022/07/03 01:13:34;;;;;;;0.40;0.40;;;17.70;99.90;18.10;101642.00;;;;5016055;28;20281;-68
2022/07/03 01:16:06;;;;;;;0.40;0.40;;;17.70;99.90;17.60;101660.00;;;;5023935;28;20201;-68
2022/07/03 01:19:27;;;;;;;0.67;0.53;;;17.50;99.90;17.50;101658.00;;;;5032476;28;20605;-68
2022/07/03 01:25:38;;;;;;;0.40;0.40;;;17.40;99.90;17.60;101661.00;;;;5012271;28;20188;-68
2022/07/03 01:28:24;;;;;;;0.20;0.20;;;17.20;99.90;17.20;101640.00;;;;5012456;28;20701;-68
2022/07/03 01:31:10;;;;;;;0.20;0.20;;;17.10;99.90;17.60;101656.00;;;;4995134;28;20203;-68
2022/07/03 01:33:58;;;;;;;0.30;0.30;;;17.30;99.90;17.10;101600.00;;;;5012239;28;20177;-68
2022/07/03 01:36:50;;;;;;;0.20;0.20;;;17.00;99.90;17.30;101646.00;;;;5010511;28;20179;-68
2022/07/03 01:39:39;;;;;;;0.53;0.47;;;17.00;99.90;17.60;101648.00;;;;4995691;28;20287;-68
2022/07/03 01:42:33;;;;;;;0.30;0.30;;;17.10;99.90;17.40;101646.00;;;;4995787;28;20189;-68
2022/07/03 01:45:20;;;;;;;0.30;0.30;;;17.10;99.90;17.10;101617.00;;;;4995509;28;20266;-68
2022/07/03 01:48:16;;;;;;;0.30;0.30;;;17.00;99.90;17.30;101644.00;;;;5011919;28;20185;-68
2022/07/03 01:51:02;;;;;;;0.30;0.30;;;17.00;99.90;17.00;101626.00;;;;5011778;28;20255;-68
2022/07/03 01:53:52;;;;;;;1.40;1.30;;;16.90;99.90;17.00;101596.00;;;;4995018;28;20690;-68
2022/07/03 01:56:54;;;;;;;1.03;1.03;;;16.80;99.90;17.10;101593.00;;;;4997229;28;20227;-68
2022/07/03 01:59:39;;;;;;;0.57;0.57;;;16.80;99.90;16.90;101617.00;;;;5065531;28;20198;-68
2022/07/03 02:02:24;;;;;;;0.30;0.30;;;16.80;99.90;17.00;101626.00;;;;5016039;28;20197;-68
2022/07/03 02:05:11;;;;;;;0.30;0.30;;;16.70;99.90;17.20;101625.00;;;;5065696;28;20191;-68
2022/07/03 02:08:11;;;;;;;0.30;0.30;;;16.70;99.90;16.80;101619.00;;;;5033424;28;20174;-68
2022/07/03 02:11:10;;;;;;;0.30;0.30;;;16.80;99.90;17.40;101625.00;;;;5032373;28;20184;-68
2022/07/03 02:14:18;;;;;;;0.30;0.30;;;16.80;99.90;16.90;101608.00;;;;5032133;28;20176;-68
2022/07/03 02:16:50;;;;;;;0.40;0.40;;;16.70;99.90;17.00;101579.00;;;;5031807;28;20648;-68
2022/07/03 02:19:53;;;;;;;0.30;0.30;;;16.70;99.90;17.30;101613.00;;;;5033442;28;20160;-68
2022/07/03 02:22:57;;;;;;;0.30;0.30;;;16.70;99.90;17.10;101605.00;;;;5048911;28;20336;-68
2022/07/03 02:26:04;;;;;;;0.30;0.30;;;16.70;99.90;16.70;101584.00;;;;5032279;28;20185;-68
2022/07/03 02:28:55;;;;;;;0.37;0.37;;;16.60;99.90;16.70;101604.00;;;;5033816;28;20599;-68
2022/07/03 02:31:45;;;;;;;0.30;0.30;;;16.60;99.90;16.70;101600.00;;;;5064878;28;20207;-68
2022/07/03 02:34:35;;;;;;;0.30;0.30;;;16.40;99.90;16.30;101601.00;;;;5032262;28;20229;-68
2022/07/03 02:37:37;;;;;;;0.30;0.30;;;16.30;99.90;16.20;101600.00;;;;5032300;28;20194;-68
2022/07/03 02:40:27;;;;;;;0.83;0.83;;;16.20;99.90;16.30;101607.00;;;;5030771;28;20209;-68
2022/07/03 02:43:21;;;;;;;0.30;0.30;;;16.20;99.90;16.30;101605.00;;;;5065104;28;20270;-68
2022/07/03 02:46:48;;;;;;;0.30;0.30;;;16.20;99.90;16.30;101599.00;;;;5065397;28;20326;-68
2022/07/03 02:49:55;;;;;;;0.33;0.33;;;16.30;99.90;16.70;101603.00;;;;5032268;28;20174;-68
2022/07/03 02:53:11;;;;;;;0.30;0.30;;;16.30;99.90;16.50;101593.00;;;;5011008;28;20263;-68
2022/07/03 02:55:58;;;;;;;0.40;0.40;;;16.30;99.90;16.40;101574.00;;;;5009208;28;20697;-68
2022/07/03 02:58:59;;;;;;;0.40;0.40;;;16.20;99.90;16.10;101615.00;;;;4994934;28;20202;-68
2022/07/03 03:01:34;;;;;;;0.50;0.50;;;16.20;99.90;16.20;101581.00;;;;4994754;28;20245;-68
2022/07/03 03:05:05;;;;;;;0.43;0.43;;;16.10;99.90;16.10;101608.00;;;;5011026;28;20286;-68
2022/07/03 03:08:25;;;;;;;0.60;0.60;;;16.10;99.90;16.70;101618.00;;;;5008775;28;20196;-68
2022/07/03 03:11:21;;;;;;;0.30;0.30;;;16.20;99.90;16.60;101587.00;;;;4971585;28;20199;-68
2022/07/03 03:14:29;;;;;;;0.40;0.40;;;16.30;99.90;16.40;101617.00;;;;4972149;28;20181;-68
2022/07/03 03:17:24;;;;;;;0.30;0.30;;;16.30;99.90;16.30;101622.00;;;;4974983;28;20187;-67
2022/07/03 03:20:16;;;;;;;0.40;0.40;;;16.20;99.90;16.20;101589.00;;;;4995022;28;20184;-68
2022/07/03 03:23:15;;;;;;;0.30;0.30;;;16.20;99.90;16.50;101619.00;;;;4995125;28;20529;-68
2022/07/03 03:26:02;;;;;;;0.43;0.43;;;16.20;99.90;15.90;101620.00;;;;4994933;28;20263;-68
2022/07/03 03:28:46;;;;;;;0.30;0.30;;;16.20;99.90;16.00;101619.00;;;;4995107;28;20192;-68
2022/07/03 03:31:52;;;;;;;0.30;0.30;;;16.00;99.90;15.50;101619.00;;;;4994702;28;20290;-68
2022/07/03 03:34:35;;;;;;;0.30;0.30;;;15.90;99.90;15.90;101615.00;;;;5034363;28;20190;-68
2022/07/03 03:37:19;;;;;;;0.40;0.40;;;15.90;99.90;16.00;101616.00;;;;5018430;28;20210;-68
2022/07/03 03:40:08;;;;;;;0.40;0.40;;;15.90;99.90;16.60;101619.00;;;;5035223;28;20171;-68
2022/07/03 03:50:18;;;;;;;1.07;0.97;;;16.00;99.90;16.00;101612.00;;;;5056697;28;20235;-68
2022/07/03 03:53:01;;;;;;;0.30;0.30;;;16.10;99.90;15.80;101623.00;;;;5055811;28;20696;-68
2022/07/03 03:56:06;;;;;;;0.83;0.83;;;15.90;99.90;15.80;101624.00;;;;5054720;28;20194;-68
2022/07/03 03:58:52;;;;;;;1.13;1.07;;;15.80;99.90;16.30;101628.00;;;;5054998;28;20189;-68
2022/07/03 04:01:43;;;;;;;0.67;0.67;;;16.00;99.90;16.50;101622.00;;;;5055695;28;20178;-68
2022/07/03 04:19:33;;;;;;;0.30;0.30;;;15.90;99.90;16.00;101623.00;;;;5061438;28;20212;-68
2022/07/03 04:22:18;;;;;;;1.53;0.63;;;15.90;99.90;16.00;101616.00;;;;5074165;28;20188;-68
2022/07/03 04:25:02;;;;;;;1.07;0.87;;;15.90;99.90;16.20;101594.00;;;;5073947;28;20179;-68
2022/07/03 04:28:06;;;;;;;1.13;1.00;;;16.00;99.90;16.50;101618.00;;;;5074397;28;20166;-68
2022/07/03 04:30:49;;;;;;;0.30;0.30;;;16.30;99.90;16.20;101629.00;;;;5074262;28;20268;-68
2022/07/03 04:33:33;;;;;;;2.00;1.70;;;16.20;99.90;15.90;101628.00;;;;5073645;28;20215;-68
2022/07/03 04:36:17;;;;;;;0.60;0.60;;;16.00;99.90;16.00;101591.00;;;;5073967;28;20182;-68
2022/07/03 04:39:00;;;;;;;0.63;0.63;;;16.00;99.90;16.50;101644.00;;;;5073740;28;20263;-68
2022/07/03 04:41:44;;;;;;;1.00;0.60;;;16.20;99.90;15.60;101640.00;;;;5089744;28;20196;-68
2022/07/03 04:44:33;;;;;;;1.37;1.23;;;16.00;99.90;16.50;101607.00;;;;5074964;28;20175;-68
2022/07/03 04:47:34;;;;;;;0.90;0.90;;;16.10;99.90;16.20;101644.00;;;;5074064;28;20269;-68
2022/07/03 04:50:38;;;;;;;0.33;0.33;;;16.20;99.90;17.20;101648.00;;;;5073833;28;20163;-68
2022/07/03 04:53:30;;;;;;;0.20;0.20;;;16.70;99.90;16.90;101635.00;;;;5056338;28;20230;-68
2022/07/03 04:56:14;;;;;;;0.30;0.30;;;16.90;99.90;16.40;101641.00;;;;5074836;28;20259;-68
2022/07/03 04:58:57;;;;;;;0.47;0.47;;;16.60;99.90;16.70;101651.00;;;;5073620;28;20209;-68
2022/07/03 05:01:47;;;;;;;0.43;0.43;;;16.80;99.90;16.50;101647.00;;;;5074687;28;20181;-68
2022/07/03 05:04:51;;;;;;;0.23;0.23;;;16.70;99.90;17.80;101652.00;;;;5056891;28;20178;-68
2022/07/03 05:07:35;;;;;;;0.37;0.37;;;17.60;99.90;18.00;101658.00;;;;5039415;28;20549;-68
2022/07/03 05:10:21;;;;;;;1.73;1.20;;;17.80;99.90;17.30;101653.00;;;;5056554;28;20533;-68
2022/07/03 05:13:16;;;;;;;1.83;1.70;;;17.40;99.90;16.80;101645.00;;;;5073184;28;20185;-68
2022/07/03 05:16:06;;;;;;;2.33;2.13;;;17.10;99.90;17.60;101652.00;;;;5073295;28;20643;-68
2022/07/03 05:18:53;;;;;;;2.87;2.00;;;17.50;99.90;18.10;101631.00;;;;5073031;28;20186;-68
2022/07/03 05:21:36;;;;;;;0.43;0.43;;;17.70;99.90;17.90;101662.00;;;;5056500;28;20197;-68
2022/07/03 05:24:21;;;;;;;1.53;1.27;;;17.80;99.90;17.40;101630.00;;;;5073138;28;20315;-69
2022/07/03 05:27:12;;;;;;;0.53;0.53;;;17.70;99.90;18.10;101665.00;;;;5073155;28;20270;-68
2022/07/03 05:29:58;;;;;;;1.40;1.30;;;17.60;99.90;17.40;101658.00;;;;5056463;28;20194;-68
2022/07/03 05:32:59;;;;;;;1.73;1.47;;;17.50;99.90;17.70;101673.00;;;;5072657;28;20224;-68
2022/07/03 05:35:42;;;;;;;0.23;0.23;;;17.80;99.90;17.60;101662.00;;;;5073742;28;20177;-68
2022/07/03 05:42:16;;;;;;;0.30;0.30;;;17.20;99.90;17.60;101663.00;;;;5072352;28;20195;-68
2022/07/03 05:45:20;;;;;;;2.80;1.43;;;17.30;99.90;17.40;101665.00;;;;5055721;28;20188;-68
2022/07/03 05:48:12;;;;;;;1.23;0.73;;;17.40;99.90;16.40;101667.00;;;;5056179;28;20634;-68
2022/07/03 05:50:59;;;;;;;1.13;1.03;;;16.80;99.90;17.30;101653.00;;;;5089282;28;20179;-67
2022/07/03 05:53:42;;;;;;;1.97;1.87;;;17.00;99.90;18.90;101636.00;;;;5072502;28;20211;-67
2022/07/03 05:56:26;;;;;;;0.80;0.80;;;18.00;99.90;18.50;101662.00;;;;5073504;28;20648;-68
2022/07/03 05:59:33;;;;;;;1.73;1.60;;;18.70;99.90;18.10;101651.00;;;;5072326;28;20233;-68
2022/07/03 06:02:19;;;;;;;0.63;0.63;;;18.50;99.90;19.00;101664.00;;;;5055866;28;20192;-68
2022/07/03 06:05:05;;;;;;;0.20;0.20;;;18.80;99.90;18.30;101660.00;;;;5071964;28;20177;-68
2022/07/03 06:07:50;;;;;;;1.27;1.17;;;18.70;99.90;18.20;101650.00;;;;5073863;28;20281;-68
2022/07/03 06:10:36;;;;;;;0.98;0.98;;;18.50;99.90;18.50;101613.00;;;;5072332;28;20180;-68
2022/07/03 06:13:23;;;;;;;0.65;0.55;;;18.50;99.90;18.90;101656.00;;;;5072109;28;20207;-68
2022/07/03 06:16:09;;;;;;;3.28;1.80;;;18.90;99.90;18.00;101646.00;;;;5038986;28;20679;-68
2022/07/03 06:18:53;;;;;;;0.57;0.40;;;18.40;99.90;17.80;101657.00;;;;5072356;28;20197;-68
2022/07/03 06:21:37;;;;;;;0.73;0.50;;;18.00;99.90;17.50;101662.00;;;;5072111;28;20260;-68
2022/07/03 06:24:26;;;;;;;1.07;0.40;;;17.80;99.90;18.40;101660.00;;;;5072076;28;20665;-68
2022/07/03 06:27:28;;;;;;;0.53;0.53;;;18.20;99.90;19.30;101666.00;;;;5072156;28;20180;-68
2022/07/03 06:30:12;;;;;;;0.50;0.50;;;18.90;99.90;18.70;101647.00;;;;5072402;28;20194;-68
2022/07/03 06:33:13;;;;;;;5.22;2.85;;;19.00;99.90;18.20;101629.00;;;;5071985;28;20578;-68
2022/07/03 06:35:56;;;;;;;1.07;0.97;;;18.50;99.90;18.20;101659.00;;;;5071630;28;20187;-68
2022/07/03 06:38:40;;;;;;;0.40;0.40;;;18.40;99.90;18.10;101660.00;;;;5073109;28;20510;-68
2022/07/03 06:41:24;;;;;;;1.00;0.90;;;18.30;99.90;18.50;101671.00;;;;5071852;28;20536;-68
2022/07/03 06:47:51;;;;;;;1.33;1.23;;;18.80;99.90;19.90;101665.00;;;;5072578;28;20188;-68
2022/07/03 06:50:45;;;;;;;2.50;1.42;;;19.30;99.90;18.60;101669.00;;;;5071391;28;20198;-68
2022/07/03 06:53:46;;;;;;;5.05;1.60;;;19.10;99.90;18.30;101664.00;;;;5072638;28;20227;-68
2022/07/03 06:56:29;;;;;;;0.30;0.30;;;19.10;99.90;18.10;101640.00;;;;5075830;28;20224;-68
2022/07/03 06:59:12;;;;;;;1.53;1.50;;;18.40;99.90;19.20;101678.00;;;;5075914;28;20206;-68
2022/07/03 07:02:14;;;;;;;0.50;0.50;;;18.70;99.90;19.30;101677.00;;;;5075591;28;20191;-68
2022/07/03 07:08:57;;;;;;;1.27;0.73;;;19.20;99.90;18.80;101670.00;;;;5076760;28;20183;-68
2022/07/03 07:12:00;;;;;;;0.83;0.83;;;18.70;99.90;20.30;101685.00;;;;5075518;28;20200;-68
2022/07/03 07:15:08;;;;;;;3.45;1.05;;;19.50;99.90;19.50;101686.00;;;;5075428;28;20530;-68
2022/07/03 07:18:12;;;;;;;0.10;0.10;;;19.90;99.90;20.30;101690.00;;;;5074208;28;20201;-68
2022/07/03 07:21:13;;;;;;;1.95;1.52;;;20.00;99.90;20.50;101705.00;;;;5059010;28;20169;-68
2022/07/03 07:23:59;;;;;;;0.65;0.65;;;20.30;99.90;19.70;101685.00;;;;5076869;28;20628;-68
2022/07/03 07:26:45;;;;;;;0.20;0.20;;;19.80;99.90;19.10;101677.00;;;;5058591;28;20216;-67
2022/07/03 07:30:06;;;;;;;2.30;1.45;;;19.30;99.90;18.70;101691.00;;;;5058177;28;20248;-68
2022/07/03 07:33:10;;;;;;;1.80;1.53;;;19.00;99.90;19.20;101693.00;;;;5057486;28;20256;-68
2022/07/03 07:36:01;;;;;;;0.90;0.90;;;18.80;99.90;19.20;101684.00;;;;5074990;28;20515;-68
2022/07/03 07:39:02;;;;;;;1.33;1.23;;;19.00;99.90;18.60;101682.00;;;;5075040;28;20225;-68
2022/07/03 07:41:46;;;;;;;0.75;0.70;;;19.00;99.90;19.10;101699.00;;;;5058685;28;20305;-68
2022/07/03 07:44:47;;;;;;;5.03;1.98;;;19.20;99.90;20.20;101693.00;;;;5057990;28;20219;-68
2022/07/03 07:47:47;;;;;;;3.08;1.40;;;19.60;99.90;19.90;101700.00;;;;5075389;28;20184;-68
2022/07/03 07:50:37;;;;;;;2.17;1.13;;;19.70;99.90;19.60;101667.00;;;;5058012;28;20273;-68
2022/07/03 07:53:41;;;;;;;0.10;0.10;;;19.80;99.90;21.70;101730.00;;;;5090980;28;20217;-68
2022/07/03 07:56:42;;;;;;;0.68;0.68;;;20.60;99.90;22.00;101751.00;;;;5047687;28;20286;-68
2022/07/03 07:59:25;;;;;;;0.20;0.20;;;21.80;99.90;22.90;101759.00;;;;5074622;28;20176;-68
2022/07/03 08:05:37;;;;;;;1.67;0.75;;;21.30;99.90;19.60;101693.00;;;;5074328;28;20196;-68
2022/07/03 08:08:17;;;;;;;3.33;0.95;;;20.20;99.90;19.90;101696.00;;;;5074520;28;20648;-68
2022/07/03 08:11:24;;;;;;;0.50;0.50;;;20.10;99.90;19.20;101705.00;;;;5074605;28;20582;-68
2022/07/03 08:14:14;;;;;;;0.30;0.30;;;19.70;99.90;22.50;101768.00;;;;5075279;28;20196;-68
2022/07/03 08:17:18;;;;;;;0.73;0.73;;;21.40;99.90;23.10;101770.00;;;;5074175;28;20201;-68
2022/07/03 08:20:18;;;;;;;2.03;1.25;;;22.20;99.90;22.90;101797.00;;;;5075418;28;20271;-68
2022/07/03 08:23:10;;;;;;;1.10;1.10;;;23.40;99.90;23.50;101790.00;;;;5075106;28;20181;-68
2022/07/03 08:26:13;;;;;;;0.15;0.15;;;23.10;99.90;21.70;101759.00;;;;5074360;28;20253;-68
2022/07/03 08:29:14;;;;;;;1.20;0.50;;;21.60;99.90;20.50;101722.00;;;;5073922;28;20179;-67
2022/07/03 08:32:07;;;;;;;0.10;0.10;;;20.70;99.90;22.40;101750.00;;;;5057219;28;20214;-68
2022/07/03 08:34:50;;;;;;;2.55;1.30;;;21.00;99.90;21.30;101769.00;;;;5073834;28;20608;-68
2022/07/03 08:38:11;;;;;;;0.63;0.63;;;21.20;99.90;20.90;101749.00;;;;5073908;28;20544;-67
2022/07/03 08:41:06;;;;;;;0.75;0.75;;;20.50;99.90;22.20;101791.00;;;;5074045;28;20650;-68
2022/07/03 08:43:53;;;;;;;0.20;0.20;;;21.60;99.90;23.10;101800.00;;;;5090847;28;20279;-68
2022/07/03 08:46:58;;;;;;;0.60;0.60;;;22.00;99.90;22.60;101820.00;;;;5073660;28;20177;-68
2022/07/03 08:50:03;;;;;;;0.45;0.45;;;22.50;99.90;23.10;101812.00;;;;5073262;28;20191;-68
2022/07/03 08:53:05;;;;;;;1.30;0.85;;;22.50;99.90;21.30;101795.00;;;;5056779;28;20201;-68
2022/07/03 08:56:11;;;;;;;0.50;0.30;;;21.60;99.90;22.10;101814.00;;;;5073725;28;20195;-68
2022/07/03 08:59:15;;;;;;;0.13;0.13;;;21.80;99.90;23.10;101816.00;;;;5090264;28;20585;-67
2022/07/03 09:01:59;;;;;;;0.50;0.50;;;21.70;99.90;22.30;101795.00;;;;5073320;28;20177;-68
2022/07/03 09:04:43;;;;;;;0.20;0.15;;;21.90;99.90;21.80;101798.00;;;;5073039;28;20190;-68
2022/07/03 09:07:34;;;;;;;0.15;0.15;;;21.40;99.90;24.00;101832.00;;;;5056767;28;20182;-68
2022/07/03 09:10:36;;;;;;;0.10;0.10;;;22.40;99.90;25.20;101855.00;;;;5073132;28;20181;-68
2022/07/03 09:13:37;;;;;;;1.73;0.65;;;23.30;99.90;22.60;101839.00;;;;5073143;28;20702;-68
2022/07/03 09:16:22;;;;;;;0.47;0.47;;;22.90;99.90;22.30;101824.00;;;;5072451;28;20180;-68
2022/07/03 09:19:42;;;;;;;0.52;0.52;;;21.80;99.90;21.90;101818.00;;;;5074145;28;20179;-68
2022/07/03 09:23:12;;;;;;;0.20;0.20;;;21.80;99.90;24.30;101860.00;;;;5056449;28;20179;-68
2022/07/03 09:26:57;;;;;;;0.40;0.40;;;22.50;99.90;23.00;101862.00;;;;5038795;28;20189;-68
2022/07/03 09:30:08;;;;;;;0.28;0.28;;;22.50;99.90;24.30;101869.00;;;;5042226;28;20190;-68
2022/07/03 09:32:45;;;;;;;0.10;0.10;;;22.90;99.90;25.80;101859.00;;;;5055245;28;20278;-68
2022/07/03 09:35:37;;;;;;;0.10;0.10;;;24.10;99.90;23.00;101871.00;;;;5073883;28;20177;-68
2022/07/03 09:38:44;;;;;;;0.10;0.10;;;23.00;99.90;24.50;101886.00;;;;5074131;28;20169;-68
2022/07/03 09:41:57;;;;;;;0.20;0.20;;;23.10;99.90;24.20;101884.00;;;;5056436;28;20168;-68
2022/07/03 09:44:46;;;;;;;0.10;0.10;;;23.00;99.90;22.40;101870.00;;;;5039177;28;20181;-68
2022/07/03 09:47:25;;;;;;;0.10;0.10;;;22.10;99.90;22.80;101849.00;;;;5072819;28;20177;-67
2022/07/03 09:50:14;;;;;;;0.17;0.17;;;22.00;99.90;22.80;101881.00;;;;5073383;28;20256;-67
2022/07/03 09:53:46;;;;;;;0.43;0.43;;;22.00;99.90;22.70;101880.00;;;;5073527;28;20203;-68
2022/07/03 09:56:37;;;;;;;0.10;0.10;;;22.30;99.90;23.60;101887.00;;;;5087038;28;20181;-68
2022/07/03 09:59:34;;;;;;;0.30;0.30;;;22.80;99.90;22.40;101888.00;;;;5055664;28;20200;-68
2022/07/03 10:02:58;;;;;;;0.63;0.40;;;22.90;99.90;22.20;101889.00;;;;5045212;28;20204;-67
2022/07/03 10:06:33;;;;;;;0.70;0.70;;;21.80;99.90;24.10;101897.00;;;;5048369;28;20202;-68
2022/07/03 10:09:27;;;;;;;0.63;0.63;;;22.30;99.90;24.80;101880.00;;;;5072526;28;20208;-68
2022/07/03 10:12:13;;;;;;;2.45;1.15;;;23.40;99.90;24.70;101896.00;;;;5072990;28;20563;-68
2022/07/03 10:15:04;;;;;;;2.08;0.40;;;23.90;99.90;23.70;101888.00;;;;5072164;28;20260;-68
2022/07/03 10:18:11;;;;;;;1.50;0.77;;;23.70;99.90;23.00;101885.00;;;;5072240;28;20568;-68
2022/07/03 10:33:47;;;;;;;0.63;0.40;;;23.30;99.90;22.90;101904.00;;;;5091061;28;20541;-68
2022/07/03 10:36:41;;;;;;;0.13;0.13;;;22.90;99.90;23.70;101914.00;;;;5069142;28;20285;-68
2022/07/03 10:39:35;;;;;;;0.10;0.10;;;22.80;99.90;24.60;101912.00;;;;5069681;28;20158;-68
2022/07/03 10:46:10;;;;;;;2.03;1.92;;;22.50;99.90;21.70;101897.00;;;;5069378;28;20327;-68
2022/07/03 10:49:08;;;;;;;0.45;0.45;;;21.70;99.90;22.70;101875.00;;;;5052846;28;20216;-68
2022/07/03 10:52:17;;;;;;;0.38;0.38;;;21.50;99.90;22.40;101869.00;;;;5069132;28;20292;-68
2022/07/03 10:55:44;;;;;;;0.22;0.22;;;22.00;99.90;22.00;101883.00;;;;5069474;28;20240;-68
2022/07/03 10:58:28;;;;;;;0.68;0.68;;;22.00;99.90;22.30;101893.00;;;;5068922;28;20188;-68
2022/07/03 11:01:28;;;;;;;0.38;0.38;;;22.00;99.90;23.60;101890.00;;;;5068433;28;20186;-68
2022/07/03 11:04:17;;;;;;;0.63;0.63;;;22.30;99.90;25.10;101870.00;;;;5052136;28;20648;-68
2022/07/03 11:06:55;;;;;;;0.10;0.10;;;23.90;99.90;27.30;101920.00;;;;5068683;28;20182;-68
2022/07/03 11:09:38;;;;;;;0.10;0.10;;;25.70;99.90;25.50;101900.00;;;;5068782;28;20582;-68
2022/07/03 11:13:03;;;;;;;0.10;0.10;;;24.90;99.90;27.40;101912.00;;;;5068684;28;20197;-68
2022/07/03 11:15:52;;;;;;;0.30;0.30;;;25.70;99.90;25.70;101915.00;;;;5041964;28;20244;-68
2022/07/03 11:19:10;;;;;;;0.10;0.10;;;26.80;99.90;25.60;101911.00;;;;5068691;28;20582;-68
2022/07/03 11:21:58;;;;;;;0.30;0.30;;;25.60;99.90;25.30;101908.00;;;;5068168;28;20667;-68
2022/07/03 11:24:39;;;;;;;1.65;0.95;;;24.40;99.90;23.90;101916.00;;;;5068353;28;20181;-68
2022/07/03 11:27:49;;;;;;;1.77;0.40;;;23.60;99.90;22.70;101896.00;;;;5068458;28;20181;-68
2022/07/03 11:31:13;;;;;;;0.22;0.22;;;22.40;99.90;23.60;101907.00;;;;5041577;28;20192;-68
2022/07/03 11:33:54;;;;;;;0.50;0.50;;;22.30;99.90;23.00;101875.00;;;;5069142;28;20280;-68
2022/07/03 11:36:34;;;;;;;0.50;0.47;;;22.40;99.90;22.40;101898.00;;;;5067744;28;20186;-68
2022/07/03 11:42:24;;;;;;;0.10;0.10;;;21.90;99.90;24.60;101911.00;;;;5063362;28;20608;-69
2022/07/03 11:45:10;;;;;;;0.60;0.50;;;22.80;99.90;23.50;101902.00;;;;5054341;28;20270;-68
2022/07/03 11:47:58;;;;;;;0.20;0.20;;;23.10;99.90;24.70;101907.00;;;;5054822;28;20168;-68
2022/07/03 11:50:40;;;;;;;0.20;0.20;;;23.20;99.90;23.70;101915.00;;;;5055226;28;20171;-68
2022/07/03 11:54:02;;;;;;;0.25;0.25;;;23.10;99.90;22.00;101904.00;;;;5054752;28;20336;-68
2022/07/03 11:56:48;;;;;;;0.40;0.30;;;22.00;99.90;23.50;101891.00;;;;5021454;28;20237;-68
2022/07/03 11:59:32;;;;;;;0.10;0.10;;;22.20;99.90;23.00;101924.00;;;;5038227;28;20656;-68
2022/07/03 12:02:21;;;;;;;0.40;0.38;;;22.20;99.90;23.20;101926.00;;;;5038116;28;20178;-68
2022/07/03 12:05:15;;;;;;;0.88;0.38;;;22.50;99.90;24.60;101927.00;;;;5054722;28;20174;-68
2022/07/03 12:08:05;;;;;;;0.85;0.52;;;23.00;99.90;24.80;101911.00;;;;5054396;28;20198;-68
2022/07/03 12:11:23;;;;;;;0.10;0.10;;;23.40;99.90;26.00;101918.00;;;;5054470;28;20542;-68
2022/07/03 12:14:11;;;;;;;0.30;0.30;;;24.50;99.90;22.80;101919.00;;;;5055253;28;20606;-69
2022/07/03 12:17:13;;;;;;;0.10;0.10;;;23.10;99.90;24.50;101922.00;;;;5054475;28;20228;-68
2022/07/03 12:19:48;;;;;;;0.22;0.22;;;23.00;99.90;23.80;101931.00;;;;5054493;28;20273;-69
2022/07/03 12:22:31;;;;;;;0.20;0.20;;;23.00;99.90;23.10;101919.00;;;;5055017;28;20224;-68
2022/07/03 12:25:18;;;;;;;3.63;2.22;;;22.40;99.90;23.70;101899.00;;;;5054275;28;20184;-68
2022/07/03 12:28:18;;;;;;;0.10;0.10;;;22.50;99.90;25.30;101904.00;;;;5055136;28;20182;-68
2022/07/03 12:31:10;;;;;;;0.10;0.10;;;23.30;99.90;25.80;101926.00;;;;5037562;28;20224;-69
2022/07/03 12:34:14;;;;;;;0.20;0.20;;;24.10;99.90;24.40;101923.00;;;;5037045;28;20216;-68
2022/07/03 12:37:00;;;;;;;1.42;0.85;;;23.70;99.90;24.50;101920.00;;;;5053841;28;20267;-68
2022/07/03 12:40:05;;;;;;;0.10;0.10;;;23.40;99.90;25.20;101923.00;;;;5054065;28;20166;-68
2022/07/03 12:43:17;;;;;;;0.28;0.28;;;23.80;99.90;24.50;101888.00;;;;5054241;28;20178;-68
2022/07/03 12:46:17;;;;;;;0.45;0.35;;;24.00;99.90;24.50;101940.00;;;;5052444;28;20190;-68
2022/07/03 12:49:07;;;;;;;0.10;0.10;;;23.60;99.90;25.50;101928.00;;;;5053952;28;20225;-68
2022/07/03 12:51:55;;;;;;;0.63;0.63;;;24.00;99.90;26.50;101923.00;;;;5054639;28;20352;-68
2022/07/03 12:55:51;;;;;;;0.10;0.10;;;24.70;99.90;27.10;101921.00;;;;5053201;28;20197;-69
2022/07/03 13:02:08;;;;;;;0.10;0.10;;;25.60;99.90;25.70;101931.00;;;;5054431;28;20212;-68
2022/07/03 13:04:45;;;;;;;0.13;0.13;;;24.60;99.90;25.70;101930.00;;;;5054388;28;20686;-68
2022/07/03 13:07:39;;;;;;;0.20;0.20;;;24.60;99.90;24.50;101950.00;;;;5053580;28;20197;-68
2022/07/03 13:10:32;;;;;;;0.50;0.50;;;23.60;99.90;23.40;101927.00;;;;5053050;28;20209;-68
2022/07/03 13:13:47;;;;;;;0.22;0.22;;;23.20;99.90;23.60;101958.00;;;;5036675;28;20580;-68
2022/07/03 13:17:04;;;;;;;0.40;0.40;;;22.70;99.90;24.10;101951.00;;;;5036342;28;20288;-68
2022/07/03 13:19:47;;;;;;;0.20;0.20;;;22.80;99.90;25.10;101937.00;;;;5053698;28;20201;-68
2022/07/03 13:22:31;;;;;;;0.75;0.50;;;23.50;99.90;24.50;101916.00;;;;5036552;28;20205;-68
2022/07/03 13:25:17;;;;;;;0.10;0.10;;;23.50;99.90;25.40;101942.00;;;;5052996;28;20158;-68
2022/07/03 13:28:07;;;;;;;0.38;0.38;;;23.70;99.90;24.60;101936.00;;;;5036250;28;20182;-68
2022/07/03 13:30:53;;;;;;;1.90;0.20;;;23.80;99.90;25.50;101935.00;;;;5052722;28;20181;-68
2022/07/03 13:33:39;;;;;;;0.10;0.10;;;24.00;99.90;26.10;101937.00;;;;5053040;28;20211;-68
2022/07/03 13:36:43;;;;;;;0.30;0.30;;;24.50;99.90;25.20;101932.00;;;;5052619;28;20581;-68
2022/07/03 13:39:46;;;;;;;0.10;0.10;;;24.50;99.90;26.00;101947.00;;;;5035577;28;20701;-68
2022/07/03 13:42:32;;;;;;;0.35;0.35;;;24.50;99.90;26.50;101935.00;;;;5036034;28;20209;-68
2022/07/03 13:45:16;;;;;;;0.10;0.10;;;24.80;99.90;27.10;101906.00;;;;5036197;28;20182;-68
2022/07/03 13:48:00;;;;;;;0.10;0.10;;;25.30;99.90;26.60;101944.00;;;;5052680;28;20200;-68
2022/07/03 13:50:46;;;;;;;0.10;0.10;;;25.20;99.90;26.50;101944.00;;;;5052405;28;20257;-68
2022/07/03 13:53:38;;;;;;;0.20;0.20;;;25.20;99.90;26.50;101918.00;;;;5052531;28;20284;-69
2022/07/03 13:56:39;;;;;;;0.20;0.20;;;25.10;99.90;26.80;101925.00;;;;5052638;28;20175;-68
2022/07/03 13:59:23;;;;;;;0.20;0.20;;;25.20;99.90;25.60;101947.00;;;;5052408;28;20159;-68
2022/07/03 14:02:09;;;;;;;0.20;0.20;;;24.90;99.90;25.00;101949.00;;;;5036071;28;20184;-68